Time;durP1;ratioP1;P1;durP2;ratioP2;P2;SDS_P1;SDS_P2;PMS_P1;PMS_P2;Temp;Humidity;BMP_temperature;BMP_pressure;BME280_temperature;BME280_humidity;BME280_pressure;Samples;Min_cycle;Max_cycle;Signal;HPM_P1;HPM_P2
2022/08/24 00:01:40;;;;;;;;;7.33;5.00;;;;;25.74;50.35;101131.44;5089369;27;45341;-67
2022/08/24 00:04:05;;;;;;;;;3.00;3.00;;;;;25.68;50.42;101124.28;5089903;27;45402;-66
2022/08/24 00:06:31;;;;;;;;;7.00;6.33;;;;;25.59;50.98;101115.47;5086203;28;45496;-66
2022/08/24 00:08:57;;;;;;;;;4.67;4.67;;;;;25.62;51.14;101120.84;5088929;28;45720;-67
2022/08/24 00:11:22;;;;;;;;;3.00;3.00;;;;;25.58;51.21;101122.78;5091298;28;45575;-66
2022/08/24 00:13:48;;;;;;;;;2.67;2.33;;;;;25.59;50.97;101124.59;5083585;28;46348;-67
2022/08/24 00:16:15;;;;;;;;;4.00;3.00;;;;;25.56;51.29;101122.81;5091630;27;45188;-66
2022/08/24 00:18:42;;;;;;;;;3.67;3.67;;;;;25.55;51.53;101129.22;5088418;28;45212;-66
2022/08/24 00:21:07;;;;;;;;;2.00;2.00;;;;;25.53;51.73;101128.38;5090875;27;45038;-68
2022/08/24 00:23:33;;;;;;;;;4.00;4.00;;;;;25.52;51.68;101120.22;5088086;28;46828;-67
2022/08/24 00:25:59;;;;;;;;;7.00;3.00;;;;;25.24;51.58;101079.97;5089750;27;45009;-64
2022/08/24 00:28:24;;;;;;;;;5.00;5.00;;;;;25.49;51.68;101129.44;5089506;28;45033;-66
2022/08/24 00:30:50;;;;;;;;;5.33;3.67;;;;;25.47;51.95;101128.56;5089103;28;45795;-64
2022/08/24 00:33:15;;;;;;;;;20.67;20.00;;;;;25.46;52.02;101125.88;5080348;28;46261;-65
2022/08/24 00:35:41;;;;;;;;;4.33;4.33;;;;;25.05;52.39;101055.00;5083831;27;45369;-67
2022/08/24 00:38:07;;;;;;;;;5.33;4.00;;;;;25.44;52.26;101130.50;5088413;28;45798;-67
2022/08/24 00:40:36;;;;;;;;;4.00;4.00;;;;;25.41;52.59;101119.63;5089901;28;45017;-67
2022/08/24 00:43:05;;;;;;;;;7.33;5.33;;;;;25.30;52.40;101107.19;5091788;27;45985;-65
2022/08/24 00:45:36;;;;;;;;;4.67;4.33;;;;;25.32;52.43;101109.88;5071788;28;46128;-67
2022/08/24 00:48:06;;;;;;;;;5.33;3.33;;;;;25.34;53.03;101121.66;5073218;27;45424;-67
2022/08/24 00:50:37;;;;;;;;;3.00;2.00;;;;;25.31;53.16;101114.44;5086981;28;45438;-66
2022/08/24 00:53:07;;;;;;;;;4.67;4.67;;;;;25.29;53.09;101118.16;5089161;28;45164;-67
2022/08/24 00:55:37;;;;;;;;;2.67;2.67;;;;;25.25;53.50;101114.59;5089187;28;45596;-66
2022/08/24 00:58:08;;;;;;;;;3.00;3.00;;;;;25.24;53.57;101117.38;5078193;28;45572;-68
2022/08/24 01:00:39;;;;;;;;;4.00;4.00;;;;;25.23;53.95;101123.75;5073605;27;45674;-66
2022/08/24 01:03:05;;;;;;;;;3.67;3.67;;;;;25.23;53.71;101118.28;5072294;28;45472;-67
2022/08/24 01:05:33;;;;;;;;;3.67;3.67;;;;;25.15;53.65;101115.81;5073105;27;45642;-66
2022/08/24 01:08:00;;;;;;;;;4.67;4.67;;;;;25.22;54.12;101124.72;5073383;28;45353;-65
2022/08/24 01:10:28;;;;;;;;;3.00;3.00;;;;;25.19;53.78;101123.88;5072856;28;45535;-69
2022/08/24 01:13:02;;;;;;;;;2.67;2.67;;;;;25.20;53.59;101119.28;5073320;27;46307;-69
2022/08/24 01:15:39;;;;;;;;;4.00;3.00;;;;;24.94;53.94;101073.56;5073587;27;45528;-68
2022/08/24 01:21:16;;;;;;;;;2.67;2.67;;;;;25.13;54.01;101113.09;5078164;27;45493;-68
2022/08/24 01:23:43;;;;;;;;;3.00;3.00;;;;;25.14;54.52;101117.63;5081379;27;45331;-66
2022/08/24 01:26:14;;;;;;;;;8.00;4.00;;;;;24.84;54.06;101065.59;5082350;28;45988;-68
2022/08/24 01:28:42;;;;;;;;;3.67;3.67;;;;;25.12;53.92;101119.50;5087653;28;44917;-67
2022/08/24 01:31:07;;;;;;;;;3.00;2.00;;;;;25.00;54.32;101098.88;5086090;28;45070;-67
2022/08/24 01:33:33;;;;;;;;;4.00;3.00;;;;;25.07;53.89;101118.75;5082316;28;45571;-67
2022/08/24 01:36:04;;;;;;;;;4.00;4.00;;;;;25.11;53.98;101131.41;5079614;27;45322;-69
2022/08/24 01:38:32;;;;;;;;;8.00;4.00;;;;;25.05;54.13;101127.94;5084790;28;45323;-66
2022/08/24 01:41:02;;;;;;;;;4.67;4.00;;;;;25.05;54.46;101117.00;5087769;27;45143;-65
2022/08/24 01:43:28;;;;;;;;;4.67;4.67;;;;;25.02;54.71;101127.06;5089892;27;45304;-68
2022/08/24 01:45:53;;;;;;;;;3.33;3.33;;;;;25.01;55.01;101127.09;5088935;28;45064;-67
2022/08/24 01:48:20;;;;;;;;;4.00;4.00;;;;;24.87;54.85;101107.47;5074247;27;45506;-67
2022/08/24 01:50:46;;;;;;;;;3.00;3.00;;;;;24.92;55.03;101128.25;5077165;27;45409;-69
2022/08/24 01:53:11;;;;;;;;;4.67;3.00;;;;;24.83;55.28;101128.50;5076461;28;45292;-67
2022/08/24 01:55:37;;;;;;;;;4.00;4.00;;;;;24.73;55.58;101111.47;5076110;27;45488;-67
2022/08/24 01:58:04;;;;;;;;;4.00;4.00;;;;;24.71;55.70;101116.06;5076492;27;45418;-66
2022/08/24 02:00:29;;;;;;;;;5.00;5.00;;;;;24.81;55.51;101128.56;5073663;28;45252;-68
2022/08/24 02:02:58;;;;;;;;;3.67;3.67;;;;;24.76;55.75;101125.03;5086477;27;46206;-67
2022/08/24 02:05:24;;;;;;;;;6.33;5.00;;;;;24.72;55.95;101128.81;5091800;27;45538;-68
2022/08/24 02:07:51;;;;;;;;;6.67;3.33;;;;;24.67;56.65;101125.28;5082520;27;45556;-67
2022/08/24 02:10:18;;;;;;;;;3.00;3.00;;;;;24.68;56.29;101118.00;5079784;28;46114;-69
2022/08/24 02:12:56;;;;;;;;;5.67;5.67;;;;;24.50;56.34;101094.75;5076060;27;45531;-68
2022/08/24 02:15:26;;;;;;;;;4.00;3.00;;;;;24.27;56.36;101056.19;5073476;28;45613;-66
2022/08/24 02:17:52;;;;;;;;;4.00;4.00;;;;;24.58;56.46;101112.78;5082051;28;45479;-68
2022/08/24 02:20:17;;;;;;;;;3.67;3.67;;;;;24.49;56.86;101102.06;5089218;27;45083;-69
2022/08/24 02:22:43;;;;;;;;;8.33;4.00;;;;;24.41;57.01;101094.03;5085427;27;46063;-67
2022/08/24 02:25:08;;;;;;;;;9.00;5.67;;;;;24.55;56.75;101117.38;5089484;27;45259;-67
2022/08/24 02:27:34;;;;;;;;;6.33;4.67;;;;;24.51;56.79;101126.59;5075227;28;45463;-66
2022/08/24 02:29:59;;;;;;;;;4.67;4.67;;;;;24.42;57.16;101109.50;5073823;28;46339;-66
2022/08/24 02:32:24;;;;;;;;;5.33;4.00;;;;;24.50;57.25;101124.78;5075064;28;58705;-66
2022/08/24 02:34:49;;;;;;;;;5.00;3.33;;;;;24.45;57.06;101123.09;5075345;28;45345;-66
2022/08/24 02:37:15;;;;;;;;;6.00;6.00;;;;;24.38;57.12;101106.88;5075985;27;45452;-69
2022/08/24 02:39:40;;;;;;;;;5.67;4.00;;;;;24.46;57.50;101126.72;5081666;27;45756;-66
2022/08/24 02:42:06;;;;;;;;;5.33;5.33;;;;;24.45;57.52;101123.09;5087028;28;45348;-66
2022/08/24 02:44:31;;;;;;;;;4.67;4.67;;;;;24.44;57.31;101120.41;5083201;28;45329;-68
2022/08/24 02:46:56;;;;;;;;;5.00;5.00;;;;;24.33;57.71;101101.53;5082419;28;47087;-66
2022/08/24 02:49:22;;;;;;;;;3.67;3.67;;;;;24.40;58.06;101124.13;5088956;28;45353;-68
2022/08/24 02:51:48;;;;;;;;;5.67;4.00;;;;;24.41;57.41;101125.94;5090281;28;45654;-68
2022/08/24 02:54:18;;;;;;;;;4.00;4.00;;;;;24.27;57.57;101105.31;5084808;27;45381;-67
2022/08/24 02:56:44;;;;;;;;;4.67;4.67;;;;;24.34;57.90;101124.28;5080941;27;45381;-66
2022/08/24 02:59:10;;;;;;;;;6.00;5.00;;;;;24.30;58.06;101118.00;5083351;27;45771;-67
2022/08/24 03:01:36;;;;;;;;;6.67;6.67;;;;;24.38;57.83;101132.34;5079143;28;45509;-67
2022/08/24 03:04:01;;;;;;;;;5.67;5.67;;;;;24.21;57.59;101090.94;5086400;27;45550;-67
2022/08/24 03:06:27;;;;;;;;;7.00;7.00;;;;;24.40;58.09;101126.84;5078423;27;45338;-65
2022/08/24 03:08:52;;;;;;;;;8.00;7.00;;;;;24.40;57.75;101118.66;5085327;27;45386;-66
2022/08/24 03:11:17;;;;;;;;;9.00;7.33;;;;;24.41;57.89;101120.47;5082752;28;45970;-67
2022/08/24 03:13:43;;;;;;;;;8.67;8.67;;;;;24.32;58.02;101112.50;5081509;28;52221;-66
2022/08/24 03:16:08;;;;;;;;;8.00;8.00;;;;;24.28;58.08;101103.47;5075653;27;45524;-67
2022/08/24 03:18:34;;;;;;;;;10.67;7.67;;;;;24.41;57.79;101126.81;5083007;27;45511;-65
2022/08/24 03:21:01;;;;;;;;;8.00;8.00;;;;;24.39;57.90;101125.06;5090226;27;45273;-66
2022/08/24 03:23:26;;;;;;;;;4.67;4.33;;;;;24.38;57.97;101124.16;5083965;28;45339;-67
2022/08/24 03:25:52;;;;;;;;;11.33;9.33;;;;;24.37;57.70;101113.28;5089082;27;44928;-66
2022/08/24 03:28:19;;;;;;;;;13.67;9.00;;;;;24.42;58.14;101119.53;5081709;28;45373;-66
2022/08/24 03:30:45;;;;;;;;;9.00;9.00;;;;;24.40;57.73;101127.78;5086543;28;46608;-65
2022/08/24 03:33:10;;;;;;;;;6.67;6.67;;;;;24.31;58.12;101114.34;5075128;27;45592;-65
2022/08/24 03:35:36;;;;;;;;;12.67;9.67;;;;;24.35;58.13;101123.34;5074463;28;45583;-68
2022/08/24 03:38:01;;;;;;;;;10.33;9.00;;;;;24.35;58.57;101121.50;5078972;28;45229;-68
2022/08/24 03:40:27;;;;;;;;;8.00;6.67;;;;;24.33;57.95;101117.03;5073628;27;45546;-69
2022/08/24 03:42:53;;;;;;;;;5.67;5.67;;;;;24.32;58.22;101110.69;5075990;28;45511;-69
2022/08/24 03:45:19;;;;;;;;;8.33;7.33;;;;;24.05;58.91;101066.72;5075756;27;45420;-69
2022/08/24 03:47:45;;;;;;;;;6.33;6.00;;;;;24.23;58.53;101103.59;5074583;28;45291;-67
2022/08/24 03:50:10;;;;;;;;;9.67;5.33;;;;;24.20;58.60;101109.13;5074587;28;45499;-65
2022/08/24 03:52:36;;;;;;;;;7.33;7.33;;;;;24.21;58.98;101119.13;5074266;27;45413;-66
2022/08/24 03:55:04;;;;;;;;;6.00;6.00;;;;;24.18;59.13;101107.38;5074777;27;45452;-68
2022/08/24 03:57:30;;;;;;;;;7.67;6.33;;;;;24.16;58.95;101112.88;5074987;28;45484;-68
2022/08/24 03:59:55;;;;;;;;;6.33;6.33;;;;;24.16;58.97;101112.88;5074592;28;45671;-67
2022/08/24 04:02:20;;;;;;;;;7.67;6.00;;;;;24.16;58.89;101112.88;5072974;28;45535;-67
2022/08/24 04:04:46;;;;;;;;;7.67;5.67;;;;;24.04;59.15;101094.06;5073284;28;45835;-66
2022/08/24 04:07:11;;;;;;;;;8.33;7.00;;;;;24.17;58.94;101113.75;5072749;28;46387;-65
2022/08/24 04:09:36;;;;;;;;;7.00;5.00;;;;;24.12;59.15;101105.69;5074223;28;46099;-67
2022/08/24 04:12:02;;;;;;;;;6.33;6.33;;;;;24.09;59.15;101109.41;5073708;28;45358;-67
2022/08/24 04:14:27;;;;;;;;;11.33;9.00;;;;;24.10;59.53;101110.28;5072462;28;45359;-67
2022/08/24 04:16:53;;;;;;;;;12.00;6.33;;;;;24.09;59.71;101112.13;5074348;27;45636;-69
2022/08/24 04:19:18;;;;;;;;;8.00;7.67;;;;;24.08;59.27;101110.31;5074503;28;46503;-68
2022/08/24 04:21:43;;;;;;;;;8.33;8.33;;;;;24.09;59.65;101116.69;5073440;28;45604;-65
2022/08/24 04:24:10;;;;;;;;;6.33;4.67;;;;;24.09;59.45;101111.25;5073482;28;49109;-68
2022/08/24 04:26:37;;;;;;;;;9.33;6.00;;;;;23.96;59.48;101090.63;5074766;28;45556;-66
2022/08/24 04:29:03;;;;;;;;;7.00;7.00;;;;;24.08;59.64;101103.97;5073733;27;45531;-66
2022/08/24 04:31:30;;;;;;;;;5.33;5.00;;;;;24.05;59.40;101107.66;5073441;27;45471;-65
2022/08/24 04:33:55;;;;;;;;;6.67;6.67;;;;;24.08;59.64;101113.06;5073756;27;45532;-65
2022/08/24 04:36:22;;;;;;;;;10.00;7.67;;;;;23.99;59.76;101096.91;5073806;28;45592;-65
2022/08/24 04:38:49;;;;;;;;;6.00;6.00;;;;;24.06;59.71;101109.47;5073544;28;46206;-66
2022/08/24 04:41:18;;;;;;;;;7.00;5.00;;;;;24.06;60.15;101114.94;5072636;28;46240;-66
2022/08/24 04:43:45;;;;;;;;;4.00;4.00;;;;;24.01;59.85;101105.06;5076390;28;45351;-66
2022/08/24 04:46:14;;;;;;;;;4.00;4.00;;;;;23.99;59.82;101107.84;5072737;28;45322;-67
2022/08/24 04:48:40;;;;;;;;;3.00;3.00;;;;;24.01;59.65;101107.81;5073196;27;45571;-64
2022/08/24 04:51:07;;;;;;;;;4.33;4.00;;;;;23.99;60.01;101099.66;5073126;28;45873;-68
2022/08/24 04:53:34;;;;;;;;;6.33;3.33;;;;;23.98;60.24;101103.28;5085888;27;45490;-65
2022/08/24 04:56:00;;;;;;;;;5.33;4.00;;;;;23.96;60.30;101107.91;5073390;27;45491;-68
2022/08/24 04:58:27;;;;;;;;;3.00;3.00;;;;;23.93;60.28;101107.97;5073653;27;45400;-67
2022/08/24 05:00:53;;;;;;;;;4.00;4.00;;;;;23.92;60.40;101111.63;5073809;28;45397;-67
2022/08/24 05:03:20;;;;;;;;;3.67;3.67;;;;;23.89;60.35;101111.69;5073718;28;45433;-67
2022/08/24 05:05:48;;;;;;;;;3.00;3.00;;;;;23.87;60.45;101109.03;5074766;28;45566;-69
2022/08/24 05:08:14;;;;;;;;;4.00;3.67;;;;;23.85;60.89;101109.97;5072701;27;45426;-68
2022/08/24 05:10:41;;;;;;;;;5.67;4.00;;;;;23.81;60.66;101100.00;5074022;28;45527;-68
2022/08/24 05:13:08;;;;;;;;;3.33;3.33;;;;;23.82;60.84;101112.75;5073456;27;45408;-66
2022/08/24 05:15:34;;;;;;;;;4.00;4.00;;;;;23.82;60.81;101115.47;5072958;27;45588;-68
2022/08/24 05:18:01;;;;;;;;;7.00;5.33;;;;;23.81;60.73;101116.38;5077297;27;45640;-67
2022/08/24 05:20:29;;;;;;;;;3.00;3.00;;;;;23.80;60.79;101115.50;5071196;28;46790;-65
2022/08/24 05:22:55;;;;;;;;;14.67;13.67;;;;;23.84;60.57;101116.34;5073799;27;45644;-66
2022/08/24 05:25:20;;;;;;;;;5.67;5.67;;;;;23.85;60.38;101116.31;5076612;28;45625;-66
2022/08/24 05:27:46;;;;;;;;;5.00;5.00;;;;;23.83;60.82;101117.31;5075385;27;51438;-65
2022/08/24 05:30:13;;;;;;;;;6.67;5.33;;;;;23.84;60.33;101121.81;5076004;28;45555;-69
2022/08/24 05:32:38;;;;;;;;;5.67;4.00;;;;;23.72;60.88;101098.41;5073697;28;45619;-68
2022/08/24 05:35:05;;;;;;;;;10.33;6.33;;;;;23.84;60.27;101117.28;5076220;27;45554;-67
2022/08/24 05:37:34;;;;;;;;;5.67;5.67;;;;;23.84;60.21;101121.81;5078375;27;46509;-67
2022/08/24 05:40:02;;;;;;;;;5.33;5.00;;;;;23.65;60.35;101094.03;5076419;28;45419;-64
2022/08/24 05:42:27;;;;;;;;;5.00;4.33;;;;;23.70;60.30;101100.28;5075356;28;45501;-67
2022/08/24 05:44:52;;;;;;;;;6.00;5.00;;;;;23.71;60.12;101111.16;5077460;28;45620;-67
2022/08/24 05:47:18;;;;;;;;;5.00;5.00;;;;;23.81;60.16;101130.03;5078618;27;46145;-64
2022/08/24 05:49:44;;;;;;;;;4.00;3.00;;;;;23.81;60.17;101127.31;5078430;27;45459;-65
2022/08/24 05:52:09;;;;;;;;;7.67;5.33;;;;;23.76;60.26;101121.06;5076479;28;45620;-66
2022/08/24 05:54:34;;;;;;;;;5.33;4.00;;;;;23.81;60.19;101132.75;5078765;28;45320;-65
2022/08/24 05:57:03;;;;;;;;;6.67;4.67;;;;;23.82;60.49;101115.47;5075395;28;52281;-65
2022/08/24 05:59:29;;;;;;;;;4.33;4.33;;;;;23.87;60.38;101119.00;5078050;27;45453;-66
2022/08/24 06:01:54;;;;;;;;;12.67;10.00;;;;;23.91;60.23;101123.50;5075730;27;45400;-68
2022/08/24 06:04:20;;;;;;;;;6.33;4.33;;;;;23.95;60.23;101124.31;5076484;27;45473;-65
2022/08/24 06:06:46;;;;;;;;;7.33;6.33;;;;;23.97;60.37;101127.91;5074853;27;46017;-66
2022/08/24 06:09:11;;;;;;;;;7.00;5.67;;;;;23.96;59.96;101127.00;5075755;28;45304;-64
2022/08/24 06:11:38;;;;;;;;;9.33;9.00;;;;;23.89;59.95;101118.06;5071449;28;45448;-64
2022/08/24 06:14:06;;;;;;;;;4.67;4.67;;;;;23.83;60.12;101101.81;5076092;28;45305;-65
2022/08/24 06:16:37;;;;;;;;;9.00;7.67;;;;;23.87;59.60;101100.84;5076609;28;45413;-67
2022/08/24 06:19:04;;;;;;;;;4.00;4.00;;;;;24.03;59.24;101134.09;5074049;27;45462;-67
2022/08/24 06:21:31;;;;;;;;;9.00;7.33;;;;;23.97;59.21;101115.13;5076337;27;46012;-66
2022/08/24 06:23:57;;;;;;;;;6.00;6.00;;;;;24.07;59.28;101130.38;5075627;28;45547;-65
2022/08/24 06:29:07;;;;;;;;;6.00;6.00;;;;;24.10;59.22;101132.13;5073808;27;45592;-68
2022/08/24 06:31:39;;;;;;;;;9.00;7.00;;;;;24.07;59.11;101118.56;5074012;28;45547;-69
2022/08/24 06:34:06;;;;;;;;;6.67;6.67;;;;;24.20;58.69;101141.88;5072101;27;45452;-67
2022/08/24 06:36:31;;;;;;;;;11.67;11.00;;;;;24.23;58.86;101144.53;5080657;28;46342;-66
2022/08/24 06:38:56;;;;;;;;;8.67;8.67;;;;;24.21;58.36;101127.31;5089051;28;45238;-66
2022/08/24 06:41:22;;;;;;;;;6.33;5.00;;;;;24.24;58.43;101129.97;5086367;27;45300;-65
2022/08/24 06:43:47;;;;;;;;;7.00;7.00;;;;;24.33;58.33;101134.31;5084526;28;45467;-65
2022/08/24 06:46:12;;;;;;;;;6.33;6.33;;;;;24.35;58.19;101137.88;5087482;28;45518;-67
2022/08/24 06:48:38;;;;;;;;;5.33;5.00;;;;;24.29;57.85;101118.94;5081467;28;45483;-67
2022/08/24 06:51:12;;;;;;;;;8.33;6.33;;;;;24.42;58.03;101130.47;5085229;27;45593;-68
2022/08/24 06:53:38;;;;;;;;;9.67;8.00;;;;;24.36;58.05;101116.97;5079006;28;45564;-64
2022/08/24 06:56:03;;;;;;;;;10.33;6.67;;;;;24.50;57.38;101144.84;5074143;28;45570;-67
2022/08/24 06:58:30;;;;;;;;;25.67;21.33;;;;;24.38;57.68;101104.16;5074910;28;45262;-66
2022/08/24 07:00:55;;;;;;;;;21.33;15.00;;;;;24.60;57.39;101124.56;5075787;27;45455;-68
2022/08/24 07:03:22;;;;;;;;;9.67;6.33;;;;;24.67;56.88;101129.88;5075041;28;45292;-68
2022/08/24 07:05:51;;;;;;;;;12.33;9.33;;;;;24.73;56.43;101132.41;5076463;27;47368;-65
2022/08/24 07:08:19;;;;;;;;;10.00;8.00;;;;;24.73;57.11;101118.75;5073752;28;45819;-65
2022/08/24 07:10:44;;;;;;;;;7.33;7.33;;;;;24.75;56.42;101115.06;5072987;27;45447;-67
2022/08/24 07:13:11;;;;;;;;;11.00;6.00;;;;;24.76;55.65;101114.09;5073342;27;45476;-66
2022/08/24 07:15:36;;;;;;;;;5.33;5.33;;;;;24.90;55.34;101126.53;5071381;28;47194;-64
2022/08/24 07:18:02;;;;;;;;;7.00;7.00;;;;;24.90;55.88;101121.94;5072450;28;45502;-67
2022/08/24 07:20:30;;;;;;;;;12.00;11.33;;;;;24.99;55.65;101132.59;5071614;28;45508;-66
2022/08/24 07:22:56;;;;;;;;;12.33;10.00;;;;;25.06;55.36;101136.06;5073181;28;45360;-67
2022/08/24 07:25:21;;;;;;;;;8.00;8.00;;;;;25.00;54.54;101117.13;5075044;27;46900;-64
2022/08/24 07:27:47;;;;;;;;;8.00;8.00;;;;;25.10;54.13;101115.94;5075736;27;45603;-66
2022/08/24 07:30:12;;;;;;;;;8.00;8.00;;;;;25.19;53.48;101137.56;5073023;28;45383;-66
2022/08/24 07:32:37;;;;;;;;;7.00;6.00;;;;;25.27;53.79;101139.19;5075510;28;45262;-65
2022/08/24 07:35:03;;;;;;;;;6.67;6.00;;;;;25.29;52.91;101140.03;5074638;28;45929;-65
2022/08/24 07:37:28;;;;;;;;;5.67;5.00;;;;;25.18;52.67;101111.13;5074427;28;45539;-65
2022/08/24 07:39:54;;;;;;;;;9.00;7.33;;;;;25.40;52.62;101142.47;5076492;28;45415;-66
2022/08/24 07:42:19;;;;;;;;;8.33;7.00;;;;;25.13;52.08;101085.75;5078110;28;45258;-63
2022/08/24 07:44:44;;;;;;;;;6.67;5.00;;;;;25.52;52.21;101142.09;5072217;28;45656;-65
2022/08/24 07:47:10;;;;;;;;;4.00;4.00;;;;;25.45;51.65;101121.34;5072331;28;45348;-64
2022/08/24 07:49:35;;;;;;;;;7.00;6.67;;;;;25.66;50.90;101141.72;5071329;28;45306;-65
2022/08/24 07:52:01;;;;;;;;;11.67;11.67;;;;;25.70;50.91;101152.50;5072149;28;45512;-67
2022/08/24 07:54:27;;;;;;;;;4.00;3.67;;;;;25.68;50.42;101143.44;5072220;28;47206;-63
2022/08/24 07:56:53;;;;;;;;;4.33;4.33;;;;;25.80;50.28;101150.38;5073875;27;45467;-67
2022/08/24 07:59:18;;;;;;;;;5.00;4.33;;;;;25.79;49.74;101137.66;5073792;28;45452;-64
2022/08/24 08:01:43;;;;;;;;;4.00;4.00;;;;;25.92;49.68;101155.50;5074519;28;45480;-63
2022/08/24 08:04:09;;;;;;;;;5.00;4.33;;;;;25.87;49.60;101137.41;5073767;28;55039;-65
2022/08/24 08:06:35;;;;;;;;;3.33;3.33;;;;;26.00;48.94;101162.59;5073570;28;45449;-68
2022/08/24 08:09:01;;;;;;;;;7.00;7.00;;;;;26.06;49.25;101165.16;5073741;28;45516;-65
2022/08/24 08:11:26;;;;;;;;;3.00;3.00;;;;;26.17;48.89;101156.56;5074378;27;45550;-62
2022/08/24 08:13:53;;;;;;;;;3.00;3.00;;;;;26.21;48.53;101164.66;5073617;28;46572;-67
2022/08/24 08:16:20;;;;;;;;;7.33;4.67;;;;;26.19;48.56;101149.22;5073527;28;45398;-65
2022/08/24 08:18:45;;;;;;;;;2.00;2.00;;;;;26.36;48.34;101160.50;5073727;28;45559;-64
2022/08/24 08:24:13;;;;;;;;;6.00;6.00;;;;;26.42;48.54;101160.31;5068440;28;45719;-63
2022/08/24 08:24:15;;;;;;;;;6.33;6.33;;;;;26.47;47.86;101158.31;5073476;28;46530;-65
2022/08/24 08:26:42;;;;;;;;;6.33;4.33;;;;;26.61;47.77;101165.16;5073385;28;45467;-64
2022/08/24 08:29:12;;;;;;;;;2.33;2.33;;;;;26.64;47.60;101144.06;5073348;27;45534;-63
2022/08/24 08:31:39;;;;;;;;;4.00;3.00;;;;;26.52;47.38;101114.31;5073954;28;45540;-64
2022/08/24 08:34:06;;;;;;;;;2.00;2.00;;;;;26.93;46.95;101163.22;5073254;28;45435;-65
2022/08/24 08:36:32;;;;;;;;;21.00;17.67;;;;;27.06;47.14;101159.09;5073634;28;45477;-66
2022/08/24 08:38:58;;;;;;;;;6.33;4.67;;;;;27.17;46.55;101170.56;5071641;28;45630;-65
2022/08/24 08:41:59;;;;;;;;;5.00;5.00;;;;;27.18;46.32;101161.38;5073815;28;45454;-66
2022/08/24 08:45:01;;;;;;;;;3.00;3.00;;;;;27.29;45.89;101172.00;5072788;28;45609;-65
2022/08/24 08:48:04;;;;;;;;;4.00;4.00;;;;;27.44;45.64;101164.13;5073055;28;45480;-62
2022/08/24 08:50:58;;;;;;;;;3.00;3.00;;;;;27.54;45.16;101168.34;5071166;28;45390;-64
2022/08/24 08:53:44;;;;;;;;;9.33;3.33;;;;;27.66;44.96;101161.50;5041637;27;45718;-68
2022/08/24 08:56:12;;;;;;;;;2.67;2.67;;;;;27.73;44.30;101152.94;5072980;28;45683;-64
2022/08/24 08:58:56;;;;;;;;;2.33;2.33;;;;;27.81;44.00;101155.38;5072428;27;45398;-64
2022/08/24 09:01:24;;;;;;;;;4.67;2.67;;;;;27.91;43.44;101159.56;5073195;28;45526;-65
2022/08/24 09:04:03;;;;;;;;;8.00;6.00;;;;;27.73;43.87;101106.25;5073162;28;45284;-63
2022/08/24 09:06:57;;;;;;;;;3.67;3.67;;;;;28.15;43.04;101148.59;5071744;28;46118;-63
2022/08/24 09:09:37;;;;;;;;;3.67;3.00;;;;;28.30;42.97;101155.31;5072439;28;45370;-67
2022/08/24 09:12:12;;;;;;;;;4.00;4.00;;;;;28.38;42.04;101142.16;5072955;27;45452;-65
2022/08/24 09:14:59;;;;;;;;;3.33;3.33;;;;;28.44;41.55;101147.38;5073123;28;45470;-63
2022/08/24 09:17:49;;;;;;;;;2.00;2.00;;;;;28.40;41.58;101134.72;5069019;28;45913;-65
2022/08/24 09:20:27;;;;;;;;;3.67;3.67;;;;;28.56;42.08;101147.81;5072178;28;46088;-62
2022/08/24 09:23:05;;;;;;;;;3.00;2.00;;;;;28.59;40.79;101156.88;5067272;28;45471;-63
2022/08/24 09:25:48;;;;;;;;;1.00;1.00;;;;;28.57;40.16;101153.28;5068424;28;45502;-63
2022/08/24 09:28:33;;;;;;;;;1.00;1.00;;;;;28.54;40.08;101156.13;5072793;27;45602;-65
2022/08/24 09:31:27;;;;;;;;;1.33;1.33;;;;;28.60;39.68;101164.16;5073190;28;45467;-63
2022/08/24 09:34:17;;;;;;;;;2.67;2.00;;;;;28.64;40.60;101146.59;5069434;28;45501;-68
2022/08/24 09:36:52;;;;;;;;;1.00;1.00;;;;;28.62;40.19;101144.84;5073398;28;45481;-65
2022/08/24 09:39:54;;;;;;;;;3.00;1.33;;;;;28.75;39.37;101162.59;5072634;28;46437;-63
2022/08/24 09:42:41;;;;;;;;;1.00;1.00;;;;;28.81;39.61;101156.84;5070895;28;45630;-63
2022/08/24 09:45:31;;;;;;;;;2.33;2.00;;;;;28.92;39.81;101159.09;5066685;28;45521;-63
2022/08/24 09:48:25;;;;;;;;;1.00;1.00;;;;;29.03;38.58;101164.16;5070156;28;45339;-66
2022/08/24 09:51:08;;;;;;;;;1.00;1.00;;;;;29.10;39.03;101153.78;5068691;28;46066;-65
2022/08/24 09:54:04;;;;;;;;;1.00;1.00;;;;;29.21;38.79;101151.47;5068027;28;45556;-66
2022/08/24 09:57:07;;;;;;;;;5.33;2.00;;;;;29.30;38.50;101153.78;5072197;28;45810;-64
2022/08/24 09:59:57;;;;;;;;;1.67;1.33;;;;;29.39;38.44;101147.88;5070411;28;45343;-69
2022/08/24 10:02:53;;;;;;;;;4.67;3.00;;;;;29.52;38.41;101145.44;5072282;28;46194;-64
2022/08/24 10:05:45;;;;;;;;;0.00;0.00;;;;;29.58;38.00;101150.69;5069932;28;45353;-65
2022/08/24 10:08:38;;;;;;;;;1.00;1.00;;;;;29.70;37.25;101151.03;5071950;28;45502;-67
2022/08/24 10:11:18;;;;;;;;;4.67;4.67;;;;;29.79;37.50;101139.63;5075918;27;45510;-69
2022/08/24 10:14:09;;;;;;;;;2.33;2.33;;;;;29.92;37.34;101142.69;5076247;27;47119;-68
2022/08/24 10:16:52;;;;;;;;;1.00;1.00;;;;;29.98;37.06;101135.97;5073858;27;45649;-67
2022/08/24 10:19:52;;;;;;;;;6.00;3.00;;;;;30.04;37.01;101138.44;5074230;28;45634;-65
2022/08/24 10:22:50;;;;;;;;;3.00;1.67;;;;;30.01;37.01;101111.91;5071447;28;45505;-64
2022/08/24 10:25:36;;;;;;;;;4.00;3.00;;;;;30.24;36.83;101126.41;5074992;27;46167;-66
2022/08/24 10:28:55;;;;;;;;;2.00;2.00;;;;;30.27;36.61;101116.13;5070983;27;45557;-64
2022/08/24 10:31:31;;;;;;;;;2.00;2.00;;;;;30.24;36.74;101105.28;5026774;28;45617;-64
2022/08/24 10:34:23;;;;;;;;;4.00;2.67;;;;;30.35;36.44;101114.88;5071676;28;45537;-67
2022/08/24 10:37:07;;;;;;;;;6.33;5.33;;;;;30.12;36.56;101056.28;5075686;28;45642;-68
2022/08/24 10:40:04;;;;;;;;;3.00;2.67;;;;;30.49;36.35;101113.22;5070875;28;45564;-68
2022/08/24 10:46:05;;;;;;;;;2.00;2.00;;;;;30.47;36.13;101108.75;5071999;28;45471;-65
2022/08/24 10:48:31;;;;;;;;;4.67;4.33;;;;;30.45;36.56;101116.22;5069497;27;46402;-64
2022/08/24 10:51:35;;;;;;;;;2.00;1.00;;;;;30.49;36.37;101117.81;5074725;28;45449;-65
2022/08/24 10:54:01;;;;;;;;;4.33;3.00;;;;;30.52;36.46;101109.41;5075373;27;45500;-65
2022/08/24 10:56:40;;;;;;;;;2.33;2.00;;;;;30.56;36.28;101107.41;5075485;27;45501;-65
2022/08/24 10:59:27;;;;;;;;;1.00;1.00;;;;;30.60;35.98;101109.91;5069342;28;45424;-69
2022/08/24 11:02:01;;;;;;;;;7.00;5.00;;;;;30.66;35.69;101105.94;5071280;27;45384;-66
2022/08/24 11:04:30;;;;;;;;;2.33;2.33;;;;;30.44;35.81;101054.69;5073228;28;45587;-64
2022/08/24 11:07:04;;;;;;;;;2.67;2.67;;;;;30.69;35.71;101103.91;5075332;28;45469;-65
2022/08/24 11:09:55;;;;;;;;;3.00;3.00;;;;;30.63;35.35;101104.22;5074255;27;45444;-63
2022/08/24 11:12:25;;;;;;;;;1.00;1.00;;;;;30.56;35.63;101100.00;5068908;28;45407;-63
2022/08/24 11:14:51;;;;;;;;;2.33;1.67;;;;;30.42;35.93;101077.78;5074883;28;45358;-65
2022/08/24 11:17:20;;;;;;;;;9.33;8.67;;;;;30.39;36.01;101084.34;5075247;28;45421;-65
2022/08/24 11:19:46;;;;;;;;;1.00;1.00;;;;;30.35;35.93;101084.53;5073898;28;46428;-65
2022/08/24 11:22:36;;;;;;;;;3.00;1.33;;;;;30.35;35.93;101090.06;5072927;28;45519;-66
2022/08/24 11:25:24;;;;;;;;;1.33;1.33;;;;;30.38;35.78;101084.44;5074719;27;45294;-65
2022/08/24 11:27:56;;;;;;;;;4.00;3.00;;;;;30.44;36.22;101078.56;5074863;28;45608;-65
2022/08/24 11:30:28;;;;;;;;;6.33;6.33;;;;;30.50;35.97;101073.63;5073990;27;46148;-66
2022/08/24 11:32:57;;;;;;;;;1.33;1.33;;;;;30.54;35.98;101076.22;5074332;28;45410;-67
2022/08/24 11:35:32;;;;;;;;;1.00;1.00;;;;;30.53;35.28;101068.97;5074107;28;45498;-67
2022/08/24 11:38:14;;;;;;;;;1.33;1.00;;;;;30.54;35.23;101062.44;5074374;28;45606;-64
2022/08/24 11:40:42;;;;;;;;;0.33;0.33;;;;;30.55;35.41;101055.97;5073955;27;47000;-67
2022/08/24 11:43:28;;;;;;;;;1.33;1.33;;;;;30.54;34.70;101057.84;5074346;28;45495;-67
2022/08/24 11:46:21;;;;;;;;;1.00;1.00;;;;;30.56;34.60;101052.25;5074354;28;45358;-65
2022/08/24 11:49:03;;;;;;;;;1.33;1.33;;;;;30.61;34.95;101047.38;5071005;28;45251;-64
2022/08/24 11:51:51;;;;;;;;;3.33;2.00;;;;;30.45;34.52;101019.72;5072382;27;45532;-65